Time;durP1;ratioP1;P1;durP2;ratioP2;P2;SDS_P1;SDS_P2;PMS_P1;PMS_P2;Temp;Humidity;BMP_temperature;BMP_pressure;BME280_temperature;BME280_humidity;BME280_pressure;Samples;Min_cycle;Max_cycle;Signal;HPM_P1;HPM_P2
2023/10/24 00:00:30;;;;;;;3.73;2.20;;;;;;;18.44;65.83;99434.91;5067441;28;20187;-62
2023/10/24 00:02:56;;;;;;;5.13;2.33;;;;;;;18.42;65.90;99423.84;5068122;28;20187;-63
2023/10/24 00:05:21;;;;;;;4.47;2.40;;;;;;;18.41;65.97;99413.66;5064346;28;20191;-63
2023/10/24 00:07:47;;;;;;;7.33;2.43;;;;;;;18.42;65.86;99415.28;5045159;28;20203;-62
2023/10/24 00:10:13;;;;;;;7.03;2.70;;;;;;;18.40;65.94;99406.31;5061749;28;20237;-62
2023/10/24 00:12:38;;;;;;;4.67;2.40;;;;;;;18.43;65.67;99399.81;5069165;28;20232;-63
2023/10/24 00:15:04;;;;;;;5.70;2.50;;;;;;;18.44;65.91;99389.16;5069358;28;20771;-62
2023/10/24 00:17:29;;;;;;;4.20;2.10;;;;;;;18.42;65.91;99371.63;5062514;28;20175;-62
2023/10/24 00:19:55;;;;;;;5.63;2.53;;;;;;;18.43;65.76;99393.25;5041607;28;20230;-62
2023/10/24 00:22:20;;;;;;;4.70;2.20;;;;;;;18.41;65.85;99402.22;5068186;28;20175;-62
2023/10/24 00:25:01;;;;;;;8.47;2.40;;;;;;;18.42;66.18;99426.72;5024778;28;20213;-62
2023/10/24 00:27:26;;;;;;;7.13;2.50;;;;;;;18.43;66.11;99441.84;5068298;28;20473;-63
2023/10/24 00:29:52;;;;;;;4.83;2.27;;;;;;;18.46;65.93;99435.34;5066647;28;20190;-63
2023/10/24 00:32:17;;;;;;;3.50;2.30;;;;;;;18.44;65.79;99440.59;5050426;28;20191;-63
2023/10/24 00:34:42;;;;;;;4.27;2.50;;;;;;;18.43;65.96;99447.56;5068537;28;20183;-63
2023/10/24 00:37:08;;;;;;;6.90;2.20;;;;;;;18.42;65.84;99441.00;5068935;28;20725;-63
2023/10/24 00:39:34;;;;;;;3.90;2.10;;;;;;;18.42;66.11;99440.19;5067884;28;20656;-63
2023/10/24 00:41:59;;;;;;;5.47;2.47;;;;;;;18.42;65.91;99426.72;5065985;28;20175;-62
2023/10/24 00:44:27;;;;;;;4.40;2.27;;;;;;;18.41;66.21;99422.22;5052002;28;20171;-63
2023/10/24 00:46:53;;;;;;;6.03;2.50;;;;;;;18.39;66.02;99416.09;5064711;28;20206;-62
2023/10/24 00:49:18;;;;;;;5.53;2.50;;;;;;;18.39;65.93;99401.81;5048489;28;20442;-62
2023/10/24 00:51:44;;;;;;;2.77;2.03;;;;;;;18.39;66.37;99378.97;5064055;28;20194;-62
2023/10/24 00:54:09;;;;;;;4.17;2.60;;;;;;;18.40;66.11;99376.91;5065163;28;20620;-62
2023/10/24 00:56:35;;;;;;;5.70;2.40;;;;;;;18.40;66.33;99371.19;5068438;28;20175;-63
2023/10/24 00:59:00;;;;;;;5.17;2.23;;;;;;;18.40;66.00;99377.72;5045872;28;20241;-63
2023/10/24 01:01:26;;;;;;;3.90;2.57;;;;;;;18.39;66.22;99370.38;5030572;28;20190;-62
2023/10/24 01:03:51;;;;;;;3.00;2.00;;;;;;;18.38;66.23;99360.19;5034278;28;20188;-63
2023/10/24 01:06:16;;;;;;;6.80;2.33;;;;;;;18.39;66.07;99340.97;5034594;28;20187;-62
2023/10/24 01:08:43;;;;;;;3.80;2.37;;;;;;;18.40;66.14;99340.59;5071349;28;20194;-63
2023/10/24 01:11:09;;;;;;;2.50;1.90;;;;;;;18.38;66.07;99331.59;5072108;28;20669;-62
2023/10/24 01:13:34;;;;;;;3.60;2.03;;;;;;;18.39;66.01;99333.22;5053857;28;20433;-62
2023/10/24 01:16:00;;;;;;;3.63;2.00;;;;;;;18.39;65.89;99335.25;5067901;28;20207;-62
2023/10/24 01:18:25;;;;;;;3.37;2.03;;;;;;;18.38;66.04;99337.31;5069990;28;20289;-63
2023/10/24 01:20:51;;;;;;;4.00;2.30;;;;;;;18.38;66.09;99323.03;5069491;28;20222;-63
2023/10/24 01:23:17;;;;;;;4.20;2.40;;;;;;;18.42;65.88;99320.19;5070588;28;20251;-63
2023/10/24 01:25:42;;;;;;;4.20;1.97;;;;;;;18.41;66.03;99313.63;5072343;28;20417;-63
2023/10/24 01:28:08;;;;;;;3.93;2.17;;;;;;;18.37;66.14;99321.38;5071060;28;20213;-63
2023/10/24 01:30:35;;;;;;;5.30;2.20;;;;;;;18.37;66.28;99327.09;5071196;28;20230;-62
2023/10/24 01:33:00;;;;;;;4.40;1.83;;;;;;;18.39;66.17;99309.53;5067309;28;20227;-62
2023/10/24 01:35:26;;;;;;;3.10;1.83;;;;;;;18.38;65.91;99314.47;5071776;28;20429;-63
2023/10/24 01:37:51;;;;;;;3.73;2.27;;;;;;;18.38;66.20;99320.16;5071468;28;20237;-63
2023/10/24 01:40:16;;;;;;;4.93;2.17;;;;;;;18.38;66.14;99325.06;5061907;28;20190;-63
2023/10/24 01:42:42;;;;;;;3.30;2.20;;;;;;;18.39;66.31;99338.13;5071902;28;20174;-63
2023/10/24 01:45:08;;;;;;;5.33;2.33;;;;;;;18.37;66.04;99329.94;5071491;28;20186;-63
2023/10/24 01:47:33;;;;;;;4.37;2.10;;;;;;;18.37;66.09;99327.09;5071125;28;20203;-63
2023/10/24 01:49:59;;;;;;;2.60;1.50;;;;;;;18.37;65.99;99323.44;5070545;28;20244;-63
2023/10/24 01:52:24;;;;;;;2.60;1.70;;;;;;;18.37;66.11;99321.38;5052026;28;20198;-63
2023/10/24 01:54:50;;;;;;;4.20;1.90;;;;;;;18.39;66.22;99316.09;5062470;28;20183;-63
2023/10/24 01:57:16;;;;;;;4.47;2.37;;;;;;;18.38;66.53;99293.63;5070275;28;20274;-62
2023/10/24 01:59:41;;;;;;;2.47;1.60;;;;;;;18.36;66.21;99293.22;5052472;28;20186;-62
2023/10/24 02:02:07;;;;;;;3.90;2.10;;;;;;;18.38;66.27;99310.78;5070855;28;20495;-63
2023/10/24 02:04:32;;;;;;;3.27;1.80;;;;;;;18.36;66.25;99307.50;5071004;28;20159;-63
2023/10/24 02:06:58;;;;;;;2.90;1.77;;;;;;;18.39;66.36;99310.38;5061844;28;20203;-63
2023/10/24 02:09:23;;;;;;;3.30;2.10;;;;;;;18.38;66.13;99307.91;5070427;28;20221;-63
2023/10/24 02:11:49;;;;;;;4.53;1.93;;;;;;;18.37;66.03;99323.44;5071718;28;20700;-63
2023/10/24 02:14:14;;;;;;;2.93;1.77;;;;;;;18.37;66.46;99329.16;5048082;28;20211;-62
2023/10/24 02:16:39;;;;;;;2.70;1.90;;;;;;;18.37;66.31;99338.50;5067854;28;20175;-62
2023/10/24 02:19:05;;;;;;;3.67;2.03;;;;;;;18.36;66.11;99341.81;5070905;28;20274;-62
2023/10/24 02:21:31;;;;;;;3.87;1.97;;;;;;;18.36;66.11;99330.38;5066693;28;20222;-62
2023/10/24 02:23:57;;;;;;;4.70;2.20;;;;;;;18.38;65.97;99325.06;5074217;28;20187;-63
2023/10/24 02:26:22;;;;;;;3.70;2.33;;;;;;;18.37;66.01;99327.09;5053125;28;20187;-62
2023/10/24 02:28:48;;;;;;;3.53;2.33;;;;;;;18.37;66.09;99335.66;5070400;28;20431;-62
2023/10/24 02:31:14;;;;;;;2.87;1.80;;;;;;;18.37;66.03;99340.56;5062025;28;20223;-62
2023/10/24 02:33:40;;;;;;;2.77;2.00;;;;;;;18.35;66.45;99345.84;5069370;28;20601;-62
2023/10/24 02:36:09;;;;;;;3.50;2.10;;;;;;;18.35;66.26;99338.13;5071235;28;20444;-62
2023/10/24 02:38:34;;;;;;;2.70;1.80;;;;;;;18.34;66.16;99342.19;5069995;28;20232;-62
2023/10/24 02:40:59;;;;;;;3.50;2.07;;;;;;;18.37;65.98;99358.50;5068367;28;20965;-63
2023/10/24 02:43:25;;;;;;;3.70;1.80;;;;;;;18.37;66.00;99354.84;5071010;28;20186;-62
2023/10/24 02:45:50;;;;;;;3.40;2.30;;;;;;;18.35;66.03;99349.53;5067760;28;20187;-62
2023/10/24 02:48:16;;;;;;;3.00;1.80;;;;;;;18.34;66.11;99369.94;5070489;28;20214;-62
2023/10/24 02:50:42;;;;;;;3.20;1.73;;;;;;;18.35;66.28;99363.84;5063083;28;20179;-62
2023/10/24 02:53:08;;;;;;;4.07;2.37;;;;;;;18.34;66.29;99364.22;5069261;28;20187;-62
2023/10/24 02:55:34;;;;;;;4.60;2.20;;;;;;;18.34;66.42;99376.47;5068688;28;20421;-62
2023/10/24 02:57:59;;;;;;;3.03;2.10;;;;;;;18.37;66.04;99372.81;5069067;28;21131;-63
2023/10/24 03:00:25;;;;;;;3.13;1.93;;;;;;;18.34;66.11;99359.34;5058507;28;20712;-62
2023/10/24 03:02:50;;;;;;;4.07;1.97;;;;;;;18.37;66.22;99375.66;5067760;28;20697;-62
2023/10/24 03:05:16;;;;;;;3.50;1.90;;;;;;;18.35;66.32;99369.53;5068578;28;20167;-63
2023/10/24 03:07:41;;;;;;;3.20;2.00;;;;;;;18.34;66.14;99376.47;5069398;28;20210;-62
2023/10/24 03:10:07;;;;;;;5.67;2.10;;;;;;;18.34;66.43;99373.63;5070089;28;20182;-62
2023/10/24 03:12:32;;;;;;;2.60;1.73;;;;;;;18.36;66.13;99356.88;5069124;28;20221;-63
2023/10/24 03:14:58;;;;;;;3.30;1.80;;;;;;;18.33;66.41;99356.88;5070367;28;20971;-62
2023/10/24 03:17:24;;;;;;;3.73;2.10;;;;;;;18.35;65.94;99360.13;5063272;28;20231;-62
2023/10/24 03:19:49;;;;;;;5.10;2.27;;;;;;;18.32;66.21;99361.75;5066367;28;20258;-63
2023/10/24 03:22:15;;;;;;;3.10;2.00;;;;;;;18.35;66.00;99360.13;5070063;28;20773;-62
2023/10/24 03:24:41;;;;;;;3.13;1.97;;;;;;;18.37;66.09;99354.84;5068767;28;20662;-62
2023/10/24 03:27:11;;;;;;;3.10;1.73;;;;;;;18.33;66.14;99357.72;5050996;28;20195;-63
2023/10/24 03:29:37;;;;;;;4.90;1.97;;;;;;;18.35;66.18;99360.97;5069580;28;20729;-63
2023/10/24 03:32:03;;;;;;;3.83;2.27;;;;;;;18.31;66.46;99365.00;5068326;28;20438;-62
2023/10/24 03:34:29;;;;;;;4.37;2.40;;;;;;;18.31;66.33;99362.97;5060268;28;20325;-63
2023/10/24 03:36:54;;;;;;;3.33;1.80;;;;;;;18.31;66.25;99359.31;5070023;28;20182;-63
2023/10/24 03:39:20;;;;;;;3.60;2.10;;;;;;;18.30;66.24;99349.91;5062212;28;20857;-62
2023/10/24 03:41:45;;;;;;;3.93;1.77;;;;;;;18.31;66.25;99342.16;5068163;28;20187;-62
2023/10/24 03:44:10;;;;;;;3.30;1.93;;;;;;;18.31;66.21;99342.97;5068507;28;20205;-63
2023/10/24 03:46:36;;;;;;;2.70;1.80;;;;;;;18.31;66.10;99325.81;5069138;28;20195;-63
2023/10/24 03:49:02;;;;;;;3.07;2.03;;;;;;;18.33;66.21;99329.13;5041482;28;20191;-62
2023/10/24 03:51:27;;;;;;;3.83;2.10;;;;;;;18.30;66.38;99315.63;5060551;28;20183;-62
2023/10/24 03:53:53;;;;;;;4.20;1.87;;;;;;;18.30;66.48;99312.75;5067865;28;20187;-63
2023/10/24 03:56:18;;;;;;;3.80;1.60;;;;;;;18.29;66.43;99308.28;5062838;28;20534;-62
2023/10/24 03:58:44;;;;;;;2.70;1.80;;;;;;;18.30;66.29;99298.47;5067925;28;20185;-62
2023/10/24 04:01:09;;;;;;;3.80;1.90;;;;;;;18.29;66.54;99305.41;5063139;28;20187;-62
2023/10/24 04:03:35;;;;;;;3.13;1.80;;;;;;;18.30;66.17;99318.47;5065723;28;20195;-63
2023/10/24 04:06:00;;;;;;;2.93;1.70;;;;;;;18.31;66.25;99314.38;5067315;28;20171;-63
2023/10/24 04:08:26;;;;;;;3.30;1.97;;;;;;;18.29;66.45;99302.56;5065170;28;20293;-63
2023/10/24 04:10:51;;;;;;;3.23;1.60;;;;;;;18.29;66.54;99296.84;5066598;28;20182;-62
2023/10/24 04:13:16;;;;;;;3.23;2.00;;;;;;;18.29;66.15;99285.41;5069900;28;20179;-62
2023/10/24 04:15:42;;;;;;;5.17;1.90;;;;;;;18.29;66.66;99293.16;5068580;28;20202;-63
2023/10/24 04:18:07;;;;;;;2.90;1.70;;;;;;;18.29;66.17;99282.56;5069055;28;20257;-62
2023/10/24 04:20:33;;;;;;;2.80;1.73;;;;;;;18.33;66.18;99283.41;5067096;28;20226;-62
2023/10/24 04:23:04;;;;;;;3.33;1.80;;;;;;;18.31;66.34;99279.31;5062781;28;20195;-63
2023/10/24 04:25:30;;;;;;;4.27;2.03;;;;;;;18.29;66.33;99265.41;5069101;28;20241;-62
2023/10/24 04:27:56;;;;;;;2.50;1.33;;;;;;;18.30;66.25;99281.31;5065669;28;20512;-62
2023/10/24 04:30:22;;;;;;;3.47;1.63;;;;;;;18.30;66.49;99284.19;5066411;28;20429;-62
2023/10/24 04:32:47;;;;;;;2.90;1.60;;;;;;;18.30;66.34;99281.31;5065361;28;20916;-62
2023/10/24 04:35:13;;;;;;;3.73;2.00;;;;;;;18.29;66.67;99278.88;5068904;28;20649;-63
2023/10/24 04:37:39;;;;;;;4.10;1.93;;;;;;;18.30;66.62;99269.91;5069330;28;20234;-62
2023/10/24 04:40:06;;;;;;;3.03;1.60;;;;;;;18.32;66.39;99273.19;5073023;28;20216;-63
2023/10/24 04:42:31;;;;;;;2.43;1.70;;;;;;;18.30;66.66;99266.22;5053492;28;20440;-63
2023/10/24 04:44:57;;;;;;;2.50;1.57;;;;;;;18.29;66.23;99265.41;5053160;28;20422;-62
2023/10/24 04:47:22;;;;;;;2.83;1.50;;;;;;;18.32;66.13;99255.22;5069034;28;20211;-62
2023/10/24 04:49:48;;;;;;;3.87;2.10;;;;;;;18.29;66.71;99256.84;5065175;28;20254;-63
2023/10/24 04:52:13;;;;;;;2.77;1.77;;;;;;;18.28;66.48;99260.94;5072066;28;20179;-62
2023/10/24 04:54:38;;;;;;;3.13;1.73;;;;;;;18.28;66.21;99260.94;5067619;28;20191;-62
2023/10/24 04:57:04;;;;;;;3.10;1.83;;;;;;;18.27;66.40;99250.69;5067923;28;20179;-63
2023/10/24 04:59:29;;;;;;;3.30;1.97;;;;;;;18.28;66.33;99249.50;5073123;28;20171;-63
2023/10/24 05:01:55;;;;;;;2.70;1.80;;;;;;;18.28;66.56;99263.78;5071825;28;20183;-63
2023/10/24 05:04:20;;;;;;;3.03;1.93;;;;;;;18.29;66.34;99264.59;5054974;28;20639;-63
2023/10/24 05:06:46;;;;;;;2.80;1.67;;;;;;;18.29;66.46;99276.00;5071539;28;20210;-63
2023/10/24 05:09:11;;;;;;;3.00;1.60;;;;;;;18.29;66.41;99271.13;5065284;28;20230;-62
2023/10/24 05:11:39;;;;;;;3.13;1.50;;;;;;;18.28;66.55;99262.94;5053191;28;20214;-63
2023/10/24 05:14:05;;;;;;;2.70;1.73;;;;;;;18.28;66.26;99262.94;5067755;28;20218;-63
2023/10/24 05:16:31;;;;;;;2.80;1.70;;;;;;;18.30;66.28;99269.06;5060344;28;20925;-63
2023/10/24 05:18:56;;;;;;;2.37;1.73;;;;;;;18.30;66.22;99275.63;5051132;28;20448;-62
2023/10/24 05:21:22;;;;;;;3.47;1.70;;;;;;;18.28;66.23;99272.34;5048603;28;20223;-62
2023/10/24 05:23:48;;;;;;;2.47;1.67;;;;;;;18.26;66.64;99280.50;5066634;28;20183;-62
2023/10/24 05:26:13;;;;;;;2.60;1.40;;;;;;;18.30;66.48;99281.31;5067550;28;20211;-63
2023/10/24 05:28:39;;;;;;;2.50;1.50;;;;;;;18.30;66.33;99277.63;5061413;28;20466;-62
2023/10/24 05:31:07;;;;;;;3.00;1.90;;;;;;;18.30;66.59;99281.31;5068728;28;20187;-62
2023/10/24 05:33:34;;;;;;;2.60;1.67;;;;;;;18.29;66.29;99284.59;5066034;28;20206;-62
2023/10/24 05:35:59;;;;;;;2.80;2.17;;;;;;;18.28;66.22;99275.22;5054480;28;20438;-63
2023/10/24 05:38:25;;;;;;;2.80;1.80;;;;;;;18.32;66.53;99276.03;5063286;28;20436;-62
2023/10/24 05:40:50;;;;;;;5.50;1.63;;;;;;;18.40;66.42;99276.88;5067788;28;20198;-62
2023/10/24 05:43:15;;;;;;;4.40;2.10;;;;;;;18.54;66.80;99265.47;5071284;28;20245;-63
2023/10/24 05:45:41;;;;;;;10.83;6.10;;;;;;;18.61;69.11;99260.59;5054993;28;20681;-62
2023/10/24 05:48:06;;;;;;;17.60;8.33;;;;;;;18.68;69.93;99251.22;5039702;28;20681;-62
2023/10/24 05:50:33;;;;;;;16.50;7.90;;;;;;;18.69;70.78;99233.66;5054223;28;20882;-62
2023/10/24 05:52:59;;;;;;;12.80;6.97;;;;;;;18.54;68.47;99242.63;5040472;28;20680;-62
2023/10/24 05:55:24;;;;;;;13.83;7.17;;;;;;;18.47;70.59;99236.91;5061661;28;20442;-63
2023/10/24 05:57:50;;;;;;;9.57;5.93;;;;;;;18.50;69.67;99241.78;5061516;28;20214;-63
2023/10/24 06:00:15;;;;;;;13.30;6.30;;;;;;;18.50;69.31;99247.50;5041800;28;20175;-63
2023/10/24 06:02:41;;;;;;;7.47;5.07;;;;;;;18.52;69.53;99243.00;5069895;28;20175;-64
2023/10/24 06:05:06;;;;;;;7.70;4.67;;;;;;;18.52;69.09;99254.44;5050973;28;20673;-64
2023/10/24 06:07:32;;;;;;;10.40;5.20;;;;;;;18.56;68.81;99283.84;5066076;28;20728;-64
2023/10/24 06:09:57;;;;;;;15.73;5.30;;;;;;;18.58;67.88;99290.00;5071020;28;20867;-63
2023/10/24 06:12:23;;;;;;;7.13;4.70;;;;;;;18.60;67.47;99306.72;5063025;28;20195;-64
2023/10/24 06:14:48;;;;;;;6.17;4.03;;;;;;;18.59;67.95;99313.69;5068895;28;20268;-64
2023/10/24 06:17:17;;;;;;;9.10;4.07;;;;;;;18.57;68.31;99299.78;5063875;28;20233;-64
2023/10/24 06:19:45;;;;;;;8.40;4.07;;;;;;;18.56;68.50;99294.50;5043747;28;20883;-62
2023/10/24 06:22:10;;;;;;;7.20;3.83;;;;;;;18.65;67.78;99284.28;5053638;28;20477;-64
2023/10/24 06:24:36;;;;;;;10.90;3.90;;;;;;;18.68;68.24;99266.34;5053318;28;20425;-63
2023/10/24 06:27:01;;;;;;;10.83;3.97;;;;;;;18.68;67.12;99269.19;5071329;28;20851;-62
2023/10/24 06:29:29;;;;;;;11.47;5.30;;;;;;;18.71;69.75;99259.78;5069319;28;20273;-62
2023/10/24 06:31:55;;;;;;;9.17;3.50;;;;;;;18.75;69.28;99272.03;5055391;28;20238;-64
2023/10/24 06:34:20;;;;;;;7.33;3.90;;;;;;;18.85;69.49;99273.25;5051681;28;20429;-63
2023/10/24 06:36:46;;;;;;;6.30;3.63;;;;;;;18.85;69.74;99265.50;5068754;28;20190;-62
2023/10/24 06:39:12;;;;;;;7.50;4.20;;;;;;;18.83;69.54;99265.13;5069993;28;20202;-62
2023/10/24 06:41:37;;;;;;;7.50;3.70;;;;;;;18.82;69.61;99272.03;5066826;28;20188;-63
2023/10/24 06:44:03;;;;;;;8.13;4.00;;;;;;;18.83;68.05;99270.00;5065000;28;20448;-63
2023/10/24 06:46:28;;;;;;;10.10;3.77;;;;;;;18.81;67.88;99269.63;5052732;28;20198;-63
2023/10/24 06:48:54;;;;;;;11.23;3.80;;;;;;;18.86;67.39;99266.34;5059666;28;20183;-63
2023/10/24 06:51:19;;;;;;;15.30;3.97;;;;;;;18.86;67.38;99275.72;5070216;28;20190;-63
2023/10/24 06:53:45;;;;;;;12.37;3.70;;;;;;;18.86;67.41;99272.88;5063939;28;20541;-63
2023/10/24 06:56:10;;;;;;;14.47;4.23;;;;;;;18.92;67.46;99274.09;5065668;28;20523;-65
2023/10/24 06:58:37;;;;;;;14.27;3.33;;;;;;;18.80;67.78;99274.50;5061472;28;20651;-64
2023/10/24 07:01:02;;;;;;;13.20;4.27;;;;;;;18.83;67.56;99273.69;5067471;28;20507;-62
2023/10/24 07:03:28;;;;;;;12.90;3.53;;;;;;;18.79;67.40;99278.59;5065939;28;20441;-64
2023/10/24 07:05:53;;;;;;;11.00;3.53;;;;;;;18.78;67.36;99282.69;5062126;28;20606;-63
2023/10/24 07:08:19;;;;;;;7.97;3.10;;;;;;;18.76;67.32;99287.97;5050475;28;20211;-64
2023/10/24 07:10:45;;;;;;;7.67;3.90;;;;;;;18.79;68.10;99289.19;5024305;28;20211;-64
2023/10/24 07:13:11;;;;;;;10.00;4.30;;;;;;;18.87;69.36;99300.22;5059294;28;20187;-64
2023/10/24 07:15:38;;;;;;;11.47;3.60;;;;;;;18.89;67.92;99294.94;5070272;28;20521;-63
2023/10/24 07:18:04;;;;;;;10.40;3.63;;;;;;;18.81;68.09;99296.16;5060726;28;20413;-64
2023/10/24 07:20:29;;;;;;;9.80;3.33;;;;;;;18.78;67.43;99288.41;5062474;28;20465;-63
2023/10/24 07:22:55;;;;;;;9.57;3.63;;;;;;;18.73;67.82;99283.09;5066148;28;20191;-63
2023/10/24 07:25:20;;;;;;;12.53;3.23;;;;;;;18.72;66.98;99289.22;5047248;28;20191;-63
2023/10/24 07:27:46;;;;;;;5.97;2.73;;;;;;;18.71;66.06;99287.56;5030824;28;20207;-64
2023/10/24 07:30:11;;;;;;;6.77;2.50;;;;;;;18.70;65.12;99298.19;5065675;28;20193;-64
2023/10/24 07:32:37;;;;;;;9.30;3.00;;;;;;;18.81;65.95;99299.00;5031988;28;20187;-64
2023/10/24 07:35:03;;;;;;;7.67;2.50;;;;;;;18.83;66.10;99308.00;5067161;28;20210;-63
2023/10/24 07:37:29;;;;;;;5.40;2.90;;;;;;;18.80;65.75;99314.53;5066939;28;20338;-64
2023/10/24 07:39:54;;;;;;;9.80;3.43;;;;;;;18.76;66.10;99321.50;5063832;28;20442;-63
2023/10/24 07:42:20;;;;;;;13.07;3.50;;;;;;;18.75;65.88;99311.25;5067433;28;20262;-64
2023/10/24 07:44:45;;;;;;;7.37;3.13;;;;;;;18.70;66.34;99309.63;5069711;28;20175;-64
2023/10/24 07:47:11;;;;;;;12.40;2.70;;;;;;;18.65;66.34;99298.59;5046984;28;20222;-64
2023/10/24 07:49:36;;;;;;;11.70;3.07;;;;;;;18.65;66.28;99301.44;5065544;28;20190;-63
2023/10/24 07:52:03;;;;;;;10.00;3.70;;;;;;;18.67;66.03;99298.97;5068947;28;20205;-64
2023/10/24 07:54:29;;;;;;;24.70;3.57;;;;;;;18.64;66.40;99299.81;5069185;28;20191;-66
2023/10/24 07:56:55;;;;;;;10.20;2.90;;;;;;;18.63;66.77;99294.50;5050068;28;20464;-62
2023/10/24 07:59:20;;;;;;;11.63;3.47;;;;;;;18.60;67.62;99304.69;5067825;28;20437;-63
2023/10/24 08:01:46;;;;;;;15.97;3.70;;;;;;;18.59;67.58;99308.78;5067328;28;20183;-63
2023/10/24 08:04:11;;;;;;;27.67;5.03;;;;;;;18.58;67.71;99304.31;5067725;28;20183;-63
2023/10/24 08:06:37;;;;;;;21.67;3.90;;;;;;;18.59;67.28;99316.53;5067254;28;20183;-62
2023/10/24 08:09:02;;;;;;;16.63;3.20;;;;;;;18.59;67.23;99314.50;5064276;28;20186;-63
2023/10/24 08:11:27;;;;;;;18.33;4.60;;;;;;;18.59;67.38;99314.50;5060916;28;20186;-63
2023/10/24 08:13:53;;;;;;;17.10;3.43;;;;;;;18.61;67.65;99329.19;5067550;28;20732;-63
2023/10/24 08:16:20;;;;;;;11.70;3.77;;;;;;;18.58;67.87;99327.16;5069098;28;20650;-64
2023/10/24 08:18:46;;;;;;;14.67;3.90;;;;;;;18.57;69.04;99327.56;5067486;28;20206;-63
2023/10/24 08:21:12;;;;;;;17.17;4.00;;;;;;;18.52;67.88;99322.25;5067600;28;20473;-63
2023/10/24 08:23:38;;;;;;;12.53;4.27;;;;;;;18.52;67.76;99325.09;5048083;28;20908;-62
2023/10/24 08:26:04;;;;;;;10.50;3.83;;;;;;;18.52;67.67;99320.19;5067674;28;20418;-62
2023/10/24 08:28:31;;;;;;;10.10;4.37;;;;;;;18.53;68.13;99316.13;5049205;28;20211;-63
2023/10/24 08:30:57;;;;;;;9.60;3.50;;;;;;;18.54;67.99;99316.94;5067447;28;20556;-62
2023/10/24 08:33:22;;;;;;;13.10;4.47;;;;;;;18.53;67.89;99319.00;5068031;28;20893;-63
2023/10/24 08:35:48;;;;;;;13.90;3.90;;;;;;;18.56;67.79;99306.72;5067620;28;20182;-62
2023/10/24 08:38:13;;;;;;;12.80;4.27;;;;;;;18.56;67.67;99323.88;5068408;28;20175;-63
2023/10/24 08:40:42;;;;;;;17.97;5.30;;;;;;;18.59;67.78;99325.94;5069016;28;20182;-62
2023/10/24 08:43:10;;;;;;;12.47;3.70;;;;;;;18.59;67.68;99307.97;5050277;28;20187;-62
2023/10/24 08:45:36;;;;;;;12.83;3.30;;;;;;;18.60;67.41;99309.59;5068170;28;20460;-62
2023/10/24 08:48:02;;;;;;;9.57;3.70;;;;;;;18.59;68.11;99313.69;5065256;28;20515;-62
2023/10/24 08:50:28;;;;;;;10.60;3.90;;;;;;;18.60;67.43;99304.69;5057774;28;20191;-63
2023/10/24 08:52:53;;;;;;;10.10;3.40;;;;;;;18.59;67.74;99293.66;5053388;28;20436;-63
2023/10/24 08:55:19;;;;;;;14.63;3.30;;;;;;;18.60;67.75;99310.41;5050806;28;20194;-63
2023/10/24 08:57:45;;;;;;;10.70;3.43;;;;;;;18.59;67.83;99302.25;5069000;28;20250;-63
2023/10/24 09:00:13;;;;;;;12.83;3.50;;;;;;;18.59;67.74;99303.06;5068452;28;20194;-63
2023/10/24 09:02:41;;;;;;;10.90;3.53;;;;;;;18.56;67.64;99309.59;5069074;28;20433;-62
2023/10/24 09:05:11;;;;;;;9.43;3.17;;;;;;;18.59;67.76;99293.66;5050536;28;20464;-63
2023/10/24 09:07:36;;;;;;;9.40;2.87;;;;;;;18.60;67.71;99298.97;5064112;28;20476;-63
2023/10/24 09:10:02;;;;;;;8.63;2.80;;;;;;;18.57;67.92;99288.34;5050968;28;20418;-62
2023/10/24 09:12:31;;;;;;;9.53;3.10;;;;;;;18.56;67.96;99286.72;5065629;28;20174;-63
2023/10/24 09:14:58;;;;;;;6.43;2.90;;;;;;;18.57;67.72;99299.78;5063975;28;20200;-63
2023/10/24 09:17:24;;;;;;;5.73;3.20;;;;;;;18.56;67.84;99286.72;5067581;28;21022;-63
2023/10/24 09:19:49;;;;;;;6.80;3.20;;;;;;;18.55;67.92;99290.81;5068463;28;20473;-63
2023/10/24 09:22:17;;;;;;;10.70;2.80;;;;;;;18.55;67.90;99285.09;5066886;28;20182;-63
2023/10/24 09:24:47;;;;;;;8.23;3.17;;;;;;;18.55;67.80;99285.09;5070696;28;20258;-63
2023/10/24 09:27:13;;;;;;;6.10;2.97;;;;;;;18.54;67.94;99294.91;5070439;28;20451;-63
2023/10/24 09:29:39;;;;;;;8.70;3.90;;;;;;;18.55;67.82;99296.53;5069899;28;20913;-62
2023/10/24 09:32:05;;;;;;;7.50;2.80;;;;;;;18.53;68.10;99286.72;5053301;28;20424;-63
2023/10/24 09:34:32;;;;;;;6.90;3.40;;;;;;;18.53;68.20;99283.84;5070665;28;20175;-62
2023/10/24 09:37:07;;;;;;;5.73;2.57;;;;;;;18.52;68.23;99283.03;5072272;28;20515;-62
2023/10/24 09:39:33;;;;;;;8.23;3.23;;;;;;;18.53;68.31;99290.41;5071824;28;20424;-63
2023/10/24 09:41:58;;;;;;;11.57;2.93;;;;;;;18.52;68.02;99288.75;5052565;28;20429;-63
2023/10/24 09:44:23;;;;;;;9.93;3.13;;;;;;;18.52;68.40;99285.88;5072116;28;21043;-62
2023/10/24 09:46:49;;;;;;;7.60;2.83;;;;;;;18.54;67.95;99288.34;5071984;28;20642;-63
2023/10/24 09:49:14;;;;;;;5.50;2.60;;;;;;;18.54;67.88;99276.91;5071945;28;20642;-63
2023/10/24 09:51:40;;;;;;;5.97;2.77;;;;;;;18.53;68.00;99273.25;5039510;28;20634;-63
2023/10/24 09:54:05;;;;;;;8.13;2.70;;;;;;;18.53;68.10;99269.56;5037451;28;20642;-63
2023/10/24 09:56:31;;;;;;;5.90;2.57;;;;;;;18.52;67.89;99265.88;5071298;28;20182;-63
2023/10/24 09:58:57;;;;;;;7.40;2.70;;;;;;;18.54;68.13;99265.47;5053871;28;20241;-63
2023/10/24 10:01:22;;;;;;;8.00;2.50;;;;;;;18.53;68.09;99258.97;5052436;28;20421;-62
2023/10/24 10:03:51;;;;;;;5.10;2.60;;;;;;;18.52;68.21;99260.16;5053553;28;20175;-63
2023/10/24 10:06:17;;;;;;;7.63;2.60;;;;;;;18.53;68.10;99258.97;5034147;28;20195;-63
2023/10/24 10:08:42;;;;;;;5.27;2.57;;;;;;;18.52;68.12;99254.44;5064066;28;21050;-62
2023/10/24 10:11:08;;;;;;;6.40;2.83;;;;;;;18.51;68.01;99249.97;5068049;28;20265;-63
2023/10/24 10:13:42;;;;;;;6.10;2.70;;;;;;;18.51;68.03;99255.69;5069326;28;20183;-63
2023/10/24 10:17:00;;;;;;;6.63;2.90;;;;;;;18.52;67.86;99245.88;5018585;28;20175;-63
2023/10/24 10:19:33;;;;;;;6.43;2.80;;;;;;;18.50;68.33;99244.66;5011846;28;20508;-63
2023/10/24 10:22:07;;;;;;;6.57;2.70;;;;;;;18.52;68.31;99253.66;5051522;28;20417;-62
2023/10/24 10:24:58;;;;;;;8.67;2.73;;;;;;;18.51;68.27;99249.97;5053833;28;20424;-62
2023/10/24 10:28:11;;;;;;;7.53;2.77;;;;;;;18.51;68.19;99247.09;5070736;28;20901;-62
2023/10/24 10:30:45;;;;;;;6.43;2.83;;;;;;;18.52;68.08;99245.88;4953769;28;20430;-62
2023/10/24 10:33:15;;;;;;;6.27;3.00;;;;;;;18.51;68.24;99247.09;5044665;28;20441;-62
2023/10/24 10:35:53;;;;;;;5.97;2.77;;;;;;;18.50;68.28;99242.63;5052590;28;20410;-62
2023/10/24 10:38:45;;;;;;;9.83;2.57;;;;;;;18.51;68.22;99243.44;5070847;28;20420;-63
2023/10/24 10:41:38;;;;;;;3.93;2.90;;;;;;;18.52;68.33;99242.22;5034994;28;20505;-60
2023/10/24 10:44:23;;;;;;;4.70;2.50;;;;;;;18.51;68.07;99238.53;5049009;28;21122;-61
2023/10/24 10:46:58;;;;;;;7.00;2.43;;;;;;;18.52;67.86;99234.44;5054294;28;20441;-61
2023/10/24 10:49:23;;;;;;;5.07;2.30;;;;;;;18.50;68.02;99242.63;5070170;28;20431;-61
2023/10/24 10:51:49;;;;;;;3.80;2.17;;;;;;;18.50;68.01;99239.75;5035601;28;20425;-61
2023/10/24 10:54:24;;;;;;;6.63;2.77;;;;;;;18.51;68.14;99229.94;5068923;28;20235;-61
2023/10/24 10:56:50;;;;;;;6.43;2.00;;;;;;;18.51;68.18;99232.81;5052321;28;20260;-61
2023/10/24 10:59:38;;;;;;;4.43;2.13;;;;;;;18.51;68.14;99229.94;5066254;28;20429;-61
2023/10/24 11:02:41;;;;;;;5.90;2.47;;;;;;;18.52;67.97;99217.28;5052670;28;20667;-60
2023/10/24 11:05:37;;;;;;;4.53;2.73;;;;;;;18.50;68.28;99225.47;5063900;28;20903;-60
2023/10/24 11:08:04;;;;;;;5.20;2.53;;;;;;;18.51;68.11;99214.88;5069009;28;20493;-60
2023/10/24 11:11:07;;;;;;;4.97;2.60;;;;;;;18.52;68.16;99217.28;5069150;28;20425;-60
2023/10/24 11:13:40;;;;;;;3.13;2.20;;;;;;;18.52;67.98;99205.84;5067528;28;20447;-60
2023/10/24 11:16:07;;;;;;;4.40;2.27;;;;;;;18.53;67.89;99218.13;5066217;28;20486;-60
2023/10/24 11:18:33;;;;;;;3.77;2.20;;;;;;;18.52;68.06;99217.28;5068232;28;21279;-60
2023/10/24 11:20:59;;;;;;;7.17;2.60;;;;;;;18.50;68.32;99221.78;5050329;28;20480;-60
2023/10/24 11:23:25;;;;;;;5.00;2.27;;;;;;;18.51;67.83;99214.88;5063312;28;20821;-60
2023/10/24 11:25:51;;;;;;;6.13;3.07;;;;;;;18.49;68.33;99203.00;5067591;28;20179;-60
2023/10/24 11:28:16;;;;;;;4.53;2.30;;;;;;;18.52;67.89;99193.63;5070052;28;20986;-60
2023/10/24 11:30:41;;;;;;;9.30;2.00;;;;;;;18.51;67.61;99189.94;5052475;28;20190;-60